createdAt,value
2023-04-05T00:00:33.389Z,2.60
2023-04-05T00:03:01.385Z,2.40
2023-04-05T00:05:34.313Z,2.50
2023-04-05T00:08:01.893Z,2.40
2023-04-05T00:10:29.609Z,2.70
2023-04-05T00:12:56.718Z,2.80
2023-04-05T00:15:24.101Z,2.60
2023-04-05T00:17:51.310Z,2.70
2023-04-05T00:20:18.461Z,2.37
2023-04-05T00:22:46.528Z,2.60
2023-04-05T00:25:13.980Z,2.33
2023-04-05T00:27:43.769Z,2.33
2023-04-05T00:30:11.231Z,2.80
2023-04-05T00:32:38.501Z,2.33
2023-04-05T00:35:05.820Z,2.60
2023-04-05T00:37:32.944Z,2.27
2023-04-05T00:40:00.309Z,2.37
2023-04-05T00:42:27.440Z,2.30
2023-04-05T00:44:54.578Z,2.40
2023-04-05T00:47:21.744Z,2.50
2023-04-05T00:49:48.855Z,2.20
2023-04-05T00:52:16.611Z,2.37
2023-04-05T00:54:43.966Z,2.13
2023-04-05T00:57:11.160Z,2.40
2023-04-05T00:59:38.381Z,2.33
2023-04-05T01:02:34.882Z,2.20
2023-04-05T01:05:08.319Z,1.87
2023-04-05T01:07:47.565Z,2.13
2023-04-05T01:10:17.520Z,2.40
2023-04-05T01:12:45.030Z,2.20
2023-04-05T01:15:12.869Z,2.30
2023-04-05T01:17:41.941Z,2.37
2023-04-05T01:20:11.711Z,1.80
2023-04-05T01:22:57.681Z,1.87
2023-04-05T01:25:34.776Z,2.17
2023-04-05T01:28:14.281Z,2.40
2023-04-05T01:30:43.037Z,2.10
2023-04-05T01:33:29.159Z,2.00
2023-04-05T01:35:59.205Z,1.80
2023-04-05T01:38:27.994Z,2.23
2023-04-05T01:40:55.356Z,2.07
2023-04-05T01:43:22.525Z,2.20
2023-04-05T01:45:49.811Z,2.20
2023-04-05T01:48:16.996Z,2.20
2023-04-05T01:50:44.292Z,2.03
2023-04-05T01:53:11.424Z,1.97
2023-04-05T01:55:38.721Z,1.83
2023-04-05T01:58:06.155Z,1.80
2023-04-05T02:00:33.298Z,2.13
2023-04-05T02:03:00.714Z,2.03
2023-04-05T02:05:27.882Z,2.30
2023-04-05T02:07:54.940Z,1.80
2023-04-05T02:10:22.873Z,2.10
2023-04-05T02:12:50.065Z,2.27
2023-04-05T02:15:17.239Z,2.10
2023-04-05T02:17:45.802Z,1.97
2023-04-05T02:20:14.508Z,1.93
2023-04-05T02:22:45.063Z,2.03
2023-04-05T02:25:13.080Z,2.03
2023-04-05T02:27:40.470Z,2.30
2023-04-05T02:30:08.117Z,2.30
2023-04-05T02:32:35.303Z,2.23
2023-04-05T02:35:02.688Z,2.13
2023-04-05T02:37:29.845Z,2.20
2023-04-05T02:39:56.916Z,2.40
2023-04-05T02:42:23.993Z,2.00
2023-04-05T02:44:52.200Z,1.90
2023-04-05T02:47:21.761Z,2.00
2023-04-05T02:49:49.316Z,2.00
2023-04-05T02:52:17.060Z,2.20
2023-04-05T02:54:44.789Z,2.10
2023-04-05T02:57:11.916Z,2.20
2023-04-05T02:59:39.478Z,2.20
2023-04-05T03:02:07.063Z,2.17
2023-04-05T03:04:38.753Z,2.10
2023-04-05T03:07:06.022Z,1.90
2023-04-05T03:09:33.615Z,2.10
2023-04-05T03:12:02.432Z,2.20
2023-04-05T03:14:29.532Z,1.87
2023-04-05T03:16:56.958Z,2.10
2023-04-05T03:19:26.088Z,2.00
2023-04-05T03:21:53.848Z,2.20
2023-04-05T03:24:21.379Z,2.33
2023-04-05T03:26:51.787Z,2.10
2023-04-05T03:29:18.883Z,2.03
2023-04-05T03:31:46.431Z,2.20
2023-04-05T03:34:14.274Z,2.53
2023-04-05T03:36:44.267Z,2.23
2023-04-05T03:39:12.631Z,2.60
2023-04-05T03:41:40.442Z,2.20
2023-04-05T03:44:08.369Z,2.00
2023-04-05T03:46:37.909Z,2.50
2023-04-05T03:49:06.097Z,2.10
2023-04-05T03:51:33.434Z,2.30
2023-04-05T03:54:00.590Z,2.47
2023-04-05T03:56:27.890Z,2.50
2023-04-05T03:58:55.091Z,2.20
2023-04-05T04:01:22.183Z,2.20
2023-04-05T04:03:49.327Z,2.27
2023-04-05T04:06:19.233Z,2.13
2023-04-05T04:08:46.761Z,2.13
2023-04-05T04:11:13.966Z,2.57
2023-04-05T04:13:41.141Z,2.23
2023-04-05T04:16:08.364Z,2.30
2023-04-05T04:18:35.506Z,2.40
2023-04-05T04:21:07.056Z,2.23
2023-04-05T04:23:34.652Z,2.10
2023-04-05T04:26:03.021Z,2.43
2023-04-05T04:28:30.186Z,2.40
2023-04-05T04:30:57.243Z,2.10
2023-04-05T04:33:24.322Z,2.30
2023-04-05T04:35:54.700Z,1.93
2023-04-05T04:38:21.894Z,2.40
2023-04-05T04:40:53.639Z,2.27
2023-04-05T04:43:27.226Z,2.30
2023-04-05T04:45:57.247Z,2.37
2023-04-05T04:48:24.482Z,2.37
2023-04-05T04:50:51.715Z,2.30
2023-04-05T04:53:18.859Z,2.60
2023-04-05T04:55:50.020Z,2.20
2023-04-05T04:58:17.924Z,2.30
2023-04-05T05:00:45.516Z,2.00
2023-04-05T05:03:13.428Z,2.40
2023-04-05T05:05:47.599Z,2.87
2023-04-05T05:08:15.027Z,2.20
2023-04-05T05:10:42.407Z,2.50
2023-04-05T05:13:11.236Z,2.27
2023-04-05T05:15:41.149Z,2.37
2023-04-05T05:18:08.889Z,2.50
2023-04-05T05:20:36.200Z,2.30
2023-04-05T05:23:05.242Z,2.20
2023-04-05T05:25:32.351Z,2.23
2023-04-05T05:27:59.987Z,2.60
2023-04-05T05:30:28.373Z,2.50
2023-04-05T05:32:57.832Z,2.70
2023-04-05T05:35:25.004Z,2.83
2023-04-05T05:37:52.597Z,2.57
2023-04-05T05:40:19.689Z,2.27
2023-04-05T05:42:47.046Z,2.43
2023-04-05T05:45:14.122Z,2.23
2023-04-05T05:47:42.154Z,2.60
2023-04-05T05:50:10.128Z,2.53
2023-04-05T05:52:37.293Z,2.87
2023-04-05T05:55:04.465Z,2.80
2023-04-05T05:57:31.902Z,3.10
2023-04-05T05:59:58.984Z,3.10
2023-04-05T06:02:26.295Z,3.00
2023-04-05T06:04:55.120Z,3.27
2023-04-05T06:07:22.608Z,2.80
2023-04-05T06:09:49.729Z,3.10
2023-04-05T06:12:16.789Z,2.90
2023-04-05T06:14:43.878Z,3.70
2023-04-05T06:17:11.236Z,3.57
2023-04-05T06:19:38.391Z,4.20
2023-04-05T06:22:05.539Z,4.30
2023-04-05T06:24:32.706Z,4.50
2023-04-05T06:27:00.161Z,4.00
2023-04-05T06:29:27.425Z,4.33
2023-04-05T06:31:55.702Z,3.93
2023-04-05T06:34:23.146Z,4.17
2023-04-05T06:36:50.608Z,4.40
2023-04-05T06:39:17.759Z,3.67
2023-04-05T06:41:45.058Z,4.57
2023-04-05T06:44:12.240Z,3.40
2023-04-05T06:46:39.397Z,3.70
2023-04-05T06:49:13.957Z,3.70
2023-04-05T06:51:41.193Z,3.93
2023-04-05T06:54:08.339Z,3.67
2023-04-05T06:56:35.421Z,4.20
2023-04-05T06:59:02.997Z,3.30
2023-04-05T07:01:30.349Z,3.33
2023-04-05T07:03:57.690Z,3.27
2023-04-05T07:06:24.966Z,3.40
2023-04-05T07:08:52.605Z,3.40
2023-04-05T07:11:19.661Z,3.33
2023-04-05T07:13:46.723Z,3.50
2023-04-05T07:16:13.884Z,3.60
2023-04-05T07:18:40.994Z,3.07
2023-04-05T07:21:08.062Z,2.90
2023-04-05T07:23:35.295Z,3.03
2023-04-05T07:26:06.009Z,3.33
2023-04-05T07:28:35.485Z,2.60
2023-04-05T07:31:03.444Z,2.87
2023-04-05T07:33:30.823Z,2.60
2023-04-05T07:35:58.151Z,2.33
2023-04-05T07:38:25.465Z,2.70
2023-04-05T07:40:52.753Z,2.37
2023-04-05T07:43:20.249Z,2.67
2023-04-05T07:45:47.496Z,2.50
2023-04-05T07:48:25.351Z,2.60
2023-04-05T07:50:52.981Z,2.27
2023-04-05T07:53:20.184Z,2.40
2023-04-05T07:55:47.287Z,2.10
2023-04-05T07:58:14.408Z,2.30
2023-04-05T08:00:42.253Z,2.67
2023-04-05T08:03:09.728Z,2.50
2023-04-05T08:05:36.858Z,2.30
2023-04-05T08:08:04.010Z,2.20
2023-04-05T08:10:31.086Z,2.40
2023-04-05T08:12:58.287Z,2.43
2023-04-05T08:15:25.352Z,2.60
2023-04-05T08:17:52.501Z,2.40
2023-04-05T08:20:19.588Z,2.37
2023-04-05T08:22:46.691Z,2.73
2023-04-05T08:25:13.839Z,2.60
2023-04-05T08:27:41.306Z,2.50
2023-04-05T08:30:09.064Z,2.63
2023-04-05T08:32:36.470Z,2.63
2023-04-05T08:35:03.674Z,2.53
2023-04-05T08:37:34.367Z,2.40
2023-04-05T08:40:01.524Z,1.97
2023-04-05T08:42:35.883Z,2.10
2023-04-05T08:45:04.730Z,2.00
2023-04-05T08:47:32.370Z,2.13
2023-04-05T08:49:59.639Z,2.73
2023-04-05T08:52:26.942Z,2.53
2023-04-05T08:54:55.405Z,2.50
2023-04-05T08:57:27.185Z,2.50
2023-04-05T08:59:55.415Z,2.50
2023-04-05T09:02:24.432Z,2.73
2023-04-05T09:04:52.124Z,2.50
2023-04-05T09:07:21.003Z,2.60
2023-04-05T09:09:50.491Z,2.90
2023-04-05T09:12:17.609Z,2.53
2023-04-05T09:14:44.950Z,2.30
2023-04-05T09:17:12.190Z,2.50
2023-04-05T09:19:39.423Z,2.30
2023-04-05T09:22:07.817Z,2.20
2023-04-05T09:24:37.004Z,2.17
2023-04-05T09:27:05.442Z,2.33
2023-04-05T09:29:32.539Z,2.30
2023-04-05T09:32:01.146Z,2.57
2023-04-05T09:34:28.346Z,2.60
2023-04-05T09:36:55.618Z,2.20
2023-04-05T09:39:28.648Z,2.70
2023-04-05T09:42:12.980Z,2.70
2023-04-05T09:45:09.496Z,2.50
2023-04-05T09:47:36.729Z,2.37
2023-04-05T09:50:16.018Z,2.57
2023-04-05T09:52:43.637Z,2.30
2023-04-05T09:55:11.094Z,2.30
2023-04-05T09:57:39.154Z,2.20
2023-04-05T10:00:06.941Z,2.23
2023-04-05T10:02:38.210Z,2.50
2023-04-05T10:05:13.833Z,2.10
2023-04-05T10:07:41.385Z,2.33
2023-04-05T10:10:09.413Z,2.17
2023-04-05T10:12:38.752Z,2.13
2023-04-05T10:15:06.495Z,2.20
2023-04-05T10:17:33.557Z,2.10
2023-04-05T10:20:03.839Z,2.40
2023-04-05T10:22:34.079Z,2.50
2023-04-05T10:25:11.679Z,2.30
2023-04-05T10:27:47.751Z,2.60
2023-04-05T10:30:16.368Z,2.00
2023-04-05T10:32:46.364Z,2.30
2023-04-05T10:35:32.332Z,2.20
2023-04-05T10:38:08.670Z,2.20
2023-04-05T10:40:37.731Z,2.30
2023-04-05T10:43:05.636Z,1.97
2023-04-05T10:45:35.653Z,1.93
2023-04-05T10:48:07.050Z,2.60
2023-04-05T10:50:34.882Z,2.50
2023-04-05T10:53:02.820Z,2.80
2023-04-05T10:55:30.023Z,2.50
2023-04-05T10:57:57.391Z,2.13
2023-04-05T11:00:27.042Z,2.10
2023-04-05T11:02:57.359Z,2.40
2023-04-05T11:05:31.511Z,2.10
2023-04-05T11:08:00.954Z,2.10
2023-04-05T11:10:29.264Z,2.07
2023-04-05T11:12:56.380Z,2.33
2023-04-05T11:15:29.942Z,2.57
2023-04-05T11:18:03.727Z,2.00
2023-04-05T11:20:46.430Z,1.80
2023-04-05T11:23:17.294Z,2.13
2023-04-05T11:25:51.900Z,2.13
2023-04-05T11:28:26.196Z,1.90
2023-04-05T11:30:56.640Z,2.20
2023-04-05T11:33:56.797Z,1.97
2023-04-05T11:36:32.272Z,1.90
2023-04-05T11:39:18.234Z,2.10
2023-04-05T11:41:46.409Z,2.20
2023-04-05T11:44:15.430Z,1.97
2023-04-05T11:46:42.949Z,1.97
2023-04-05T11:49:10.380Z,2.00
2023-04-05T11:51:37.954Z,2.10
2023-04-05T11:54:05.253Z,2.00
2023-04-05T11:56:32.352Z,2.00
2023-04-05T11:58:59.672Z,2.00
2023-04-05T12:01:26.872Z,2.00
2023-04-05T12:03:57.710Z,2.00
2023-04-05T12:06:26.175Z,2.00
2023-04-05T12:08:55.830Z,1.50
2023-04-05T12:11:27.189Z,2.03
2023-04-05T12:14:03.872Z,2.00
2023-04-05T12:16:31.137Z,1.90
2023-04-05T12:18:59.338Z,1.83
2023-04-05T12:21:27.930Z,2.20
2023-04-05T12:23:55.284Z,1.83
2023-04-05T12:26:22.429Z,2.03
2023-04-05T12:28:56.179Z,1.93
2023-04-05T12:31:39.809Z,2.07
2023-04-05T12:34:07.341Z,2.10
2023-04-05T12:36:34.558Z,2.10
2023-04-05T12:39:03.054Z,2.13
2023-04-05T12:41:31.474Z,2.30
2023-04-05T12:44:01.810Z,2.00
2023-04-05T12:46:48.311Z,2.10
2023-04-05T12:49:19.469Z,1.90
2023-04-05T12:51:47.297Z,2.10
2023-04-05T12:54:15.243Z,1.80
2023-04-05T12:56:42.642Z,2.03
2023-04-05T12:59:09.997Z,1.90
2023-04-05T13:01:37.208Z,1.63
2023-04-05T13:04:15.552Z,1.80
2023-04-05T13:06:43.750Z,2.10
2023-04-05T13:09:11.012Z,1.97
2023-04-05T13:11:38.152Z,1.90
2023-04-05T13:14:05.275Z,1.80
2023-04-05T13:16:32.364Z,2.00
2023-04-05T13:18:59.463Z,1.80
2023-04-05T13:21:27.192Z,2.03
2023-04-05T13:23:54.330Z,1.83
2023-04-05T13:26:21.820Z,1.90
2023-04-05T13:28:48.971Z,2.03
2023-04-05T13:31:16.287Z,1.80
2023-04-05T13:33:43.625Z,2.00
2023-04-05T13:36:12.437Z,1.70
2023-04-05T13:38:41.095Z,1.70
2023-04-05T13:41:08.259Z,2.30
2023-04-05T13:43:35.360Z,1.90
2023-04-05T13:46:02.554Z,2.27
2023-04-05T13:48:29.671Z,1.87
2023-04-05T13:50:56.736Z,1.97
2023-04-05T13:53:23.882Z,1.53
2023-04-05T13:55:50.963Z,1.73
2023-04-05T13:58:18.054Z,1.80
2023-04-05T14:00:45.119Z,1.77
2023-04-05T14:03:12.201Z,2.00
2023-04-05T14:05:39.392Z,1.67
2023-04-05T14:08:06.455Z,1.57
2023-04-05T14:10:33.525Z,1.80
2023-04-05T14:13:00.777Z,1.30
2023-04-05T14:15:27.923Z,1.70
2023-04-05T14:17:55.074Z,1.47
2023-04-05T14:20:22.218Z,1.30
2023-04-05T14:22:49.359Z,1.30
2023-04-05T14:25:16.999Z,1.60
2023-04-05T14:27:44.104Z,1.80
2023-04-05T14:30:12.454Z,1.40
2023-04-05T14:32:39.811Z,1.60
2023-04-05T14:35:07.180Z,1.70
2023-04-05T14:37:34.359Z,1.40
2023-04-05T14:40:01.616Z,1.57
2023-04-05T14:42:40.964Z,1.60
2023-04-05T14:45:15.405Z,1.63
2023-04-05T14:47:42.605Z,1.50
2023-04-05T14:50:09.984Z,1.43
2023-04-05T14:52:37.454Z,1.70
2023-04-05T14:55:04.739Z,1.73
2023-04-05T14:57:31.994Z,1.47
2023-04-05T14:59:59.094Z,1.67
2023-04-05T15:02:26.351Z,1.50
2023-04-05T15:04:53.472Z,1.60
2023-04-05T15:07:20.741Z,1.60
2023-04-05T15:09:48.772Z,1.60
2023-04-05T15:12:16.177Z,1.60
2023-04-05T15:14:45.462Z,1.80
2023-04-05T15:17:13.157Z,1.40
2023-04-05T15:19:40.530Z,1.50
2023-04-05T15:22:07.944Z,1.53
2023-04-05T15:24:35.318Z,1.90
2023-04-05T15:27:02.642Z,1.80
2023-04-05T15:29:30.124Z,1.67
2023-04-05T15:32:00.585Z,1.43
2023-04-05T15:34:28.353Z,1.70
2023-04-05T15:36:55.943Z,1.83
2023-04-05T15:39:23.684Z,1.80
2023-04-05T15:41:51.457Z,1.60
2023-04-05T15:44:18.629Z,1.63
2023-04-05T15:46:45.971Z,1.50
2023-04-05T15:49:15.382Z,1.87
2023-04-05T15:51:44.203Z,1.60
2023-04-05T15:54:14.090Z,1.60
2023-04-05T15:56:41.206Z,1.80
2023-04-05T15:59:08.377Z,1.63
2023-04-05T16:01:37.380Z,1.40
2023-04-05T16:04:05.070Z,1.60
2023-04-05T16:06:32.460Z,1.30
2023-04-05T16:09:00.689Z,1.53
2023-04-05T16:11:27.998Z,1.40
2023-04-05T16:13:56.903Z,1.70
2023-04-05T16:16:38.168Z,1.57
2023-04-05T16:19:10.327Z,1.60
2023-04-05T16:21:37.390Z,1.63
2023-04-05T16:24:05.414Z,1.67
2023-04-05T16:26:33.044Z,2.03
2023-04-05T16:29:00.844Z,1.77
2023-04-05T16:31:28.587Z,1.50
2023-04-05T16:33:55.743Z,1.87
2023-04-05T16:36:22.920Z,1.30
2023-04-05T16:38:50.089Z,1.70
2023-04-05T16:41:17.397Z,2.00
2023-04-05T16:43:44.541Z,1.70
2023-04-05T16:46:11.800Z,1.60
2023-04-05T16:48:39.016Z,1.90
2023-04-05T16:51:07.477Z,1.70
2023-04-05T16:53:34.686Z,1.90
2023-04-05T16:56:01.850Z,1.60
2023-04-05T16:58:29.685Z,1.80
2023-04-05T17:00:58.870Z,1.70
2023-04-05T17:03:26.296Z,1.63
2023-04-05T17:05:53.863Z,1.60
2023-04-05T17:08:20.991Z,2.00
2023-04-05T17:10:48.270Z,1.80
2023-04-05T17:13:15.452Z,1.30
2023-04-05T17:15:42.808Z,1.23
2023-04-05T17:18:10.248Z,1.20
2023-04-05T17:20:37.506Z,1.13
2023-04-05T17:23:04.663Z,1.30
2023-04-05T17:25:32.073Z,1.20
2023-04-05T17:27:59.207Z,1.60
2023-04-05T17:30:26.613Z,1.47
2023-04-05T17:32:53.728Z,1.20
2023-04-05T17:35:21.103Z,1.33
2023-04-05T17:37:48.402Z,1.43
2023-04-05T17:40:16.288Z,1.20
2023-04-05T17:42:43.461Z,1.20
2023-04-05T17:45:11.394Z,1.37
2023-04-05T17:47:38.725Z,1.43
2023-04-05T17:50:06.336Z,1.40
2023-04-05T17:52:33.537Z,1.30
2023-04-05T17:55:00.908Z,1.47
2023-04-05T17:57:28.018Z,2.13
2023-04-05T17:59:57.350Z,2.30
2023-04-05T18:02:24.480Z,2.27
2023-04-05T18:04:51.628Z,2.40
2023-04-05T18:07:18.821Z,2.13
2023-04-05T18:09:46.372Z,2.30
2023-04-05T18:12:13.760Z,2.30
2023-04-05T18:14:40.904Z,2.30
2023-04-05T18:17:08.083Z,2.57
2023-04-05T18:19:35.788Z,2.97
2023-04-05T18:22:03.168Z,2.87
2023-04-05T18:24:31.080Z,2.90
2023-04-05T18:26:58.319Z,2.60
2023-04-05T18:29:29.344Z,2.60
2023-04-05T18:31:56.867Z,3.10
2023-04-05T18:34:24.089Z,4.40
2023-04-05T18:36:51.358Z,4.50
2023-04-05T18:39:20.084Z,4.03
2023-04-05T18:41:47.594Z,3.10
2023-04-05T18:44:14.770Z,2.67
2023-04-05T18:46:42.404Z,2.37
2023-04-05T18:49:09.798Z,2.80
2023-04-05T18:51:37.474Z,2.57
2023-04-05T18:54:04.673Z,2.70
2023-04-05T18:56:31.860Z,3.23
2023-04-05T18:58:59.092Z,3.37
2023-04-05T19:01:26.344Z,3.40
2023-04-05T19:03:53.657Z,3.13
2023-04-05T19:06:21.046Z,2.80
2023-04-05T19:08:48.355Z,2.60
2023-04-05T19:11:15.689Z,2.30
2023-04-05T19:13:42.848Z,1.97
2023-04-05T19:16:10.039Z,2.13
2023-04-05T19:18:37.308Z,2.17
2023-04-05T19:21:04.647Z,2.40
2023-04-05T19:23:32.550Z,2.00
2023-04-05T19:25:59.631Z,1.87
2023-04-05T19:28:27.158Z,1.80
2023-04-05T19:30:54.574Z,2.10
2023-04-05T19:33:22.059Z,2.20
2023-04-05T19:35:49.345Z,2.00
2023-04-05T19:38:16.634Z,1.90
2023-04-05T19:40:43.879Z,2.03
2023-04-05T19:43:11.865Z,2.27
2023-04-05T19:45:38.971Z,2.00
2023-04-05T19:48:26.014Z,2.27
2023-04-05T19:50:55.692Z,2.33
2023-04-05T19:53:38.638Z,2.23
2023-04-05T19:56:09.744Z,2.30
2023-04-05T19:58:36.941Z,2.63
2023-04-05T20:01:06.180Z,2.63
2023-04-05T20:03:37.380Z,2.20
2023-04-05T20:06:06.109Z,2.00
2023-04-05T20:08:34.134Z,2.00
2023-04-05T20:11:01.482Z,2.10
2023-04-05T20:13:28.613Z,2.20
2023-04-05T20:15:55.886Z,2.23
2023-04-05T20:18:27.776Z,2.53
2023-04-05T20:20:55.202Z,2.37
2023-04-05T20:23:22.876Z,2.30
2023-04-05T20:25:53.349Z,2.17
2023-04-05T20:28:20.425Z,2.30
2023-04-05T20:30:47.553Z,2.50
2023-04-05T20:33:53.332Z,2.63
2023-04-05T20:36:21.860Z,2.60
2023-04-05T20:38:49.892Z,2.93
2023-04-05T20:41:18.349Z,2.90
2023-04-05T20:43:45.571Z,3.00
2023-04-05T20:46:12.965Z,3.13
2023-04-05T20:48:40.362Z,3.20
2023-04-05T20:51:08.031Z,3.10
2023-04-05T20:53:36.459Z,3.13
2023-04-05T20:56:07.238Z,3.07
2023-04-05T20:58:34.972Z,3.00
2023-04-05T21:01:03.086Z,3.10
2023-04-05T21:03:34.595Z,3.30
2023-04-05T21:06:02.342Z,3.00
2023-04-05T21:08:30.696Z,3.33
2023-04-05T21:10:58.312Z,3.00
2023-04-05T21:13:25.665Z,3.20
2023-04-05T21:15:53.349Z,3.30
2023-04-05T21:18:20.721Z,3.50
2023-04-05T21:20:51.023Z,3.53
2023-04-05T21:23:18.786Z,3.30
2023-04-05T21:25:46.486Z,3.40
2023-04-05T21:28:14.283Z,3.57
2023-04-05T21:30:44.773Z,3.80
2023-04-05T21:33:12.470Z,3.50
2023-04-05T21:35:39.899Z,3.60
2023-04-05T21:38:07.297Z,4.10
2023-04-05T21:40:34.535Z,3.83
2023-04-05T21:43:01.748Z,4.07
2023-04-05T21:45:28.867Z,4.40
2023-04-05T21:47:56.178Z,4.23
2023-04-05T21:50:23.474Z,4.33
2023-04-05T21:52:50.814Z,4.17
2023-04-05T21:55:17.912Z,3.73
2023-04-05T21:57:44.974Z,4.00
2023-04-05T22:00:12.292Z,4.30
2023-04-05T22:02:40.019Z,4.33
2023-04-05T22:05:07.814Z,3.83
2023-04-05T22:07:35.706Z,4.10
2023-04-05T22:10:03.368Z,4.17
2023-04-05T22:12:30.646Z,4.23
2023-04-05T22:14:57.860Z,3.67
2023-04-05T22:17:25.045Z,3.90
2023-04-05T22:19:52.209Z,3.97
2023-04-05T22:22:19.549Z,4.33
2023-04-05T22:24:47.385Z,4.13
2023-04-05T22:27:14.497Z,4.17
2023-04-05T22:29:41.649Z,4.47
2023-04-05T22:32:08.835Z,4.50
2023-04-05T22:34:36.101Z,3.80
2023-04-05T22:37:03.311Z,4.10
2023-04-05T22:39:30.408Z,3.93
2023-04-05T22:41:57.609Z,3.70
2023-04-05T22:44:25.070Z,3.70
2023-04-05T22:46:52.465Z,4.00
2023-04-05T22:49:19.562Z,3.50
2023-04-05T22:51:46.723Z,3.57
2023-04-05T22:54:13.831Z,3.73
2023-04-05T22:56:41.081Z,3.73
2023-04-05T22:59:08.434Z,3.20
2023-04-05T23:01:35.934Z,3.20
2023-04-05T23:04:03.178Z,3.17
2023-04-05T23:06:31.063Z,2.97
2023-04-05T23:08:58.226Z,3.30
2023-04-05T23:11:26.058Z,3.00
2023-04-05T23:13:53.238Z,3.30
2023-04-05T23:16:20.522Z,2.90
2023-04-05T23:18:49.167Z,3.23
2023-04-05T23:21:16.465Z,2.90
2023-04-05T23:23:43.603Z,2.87
2023-04-05T23:26:10.798Z,2.90
2023-04-05T23:28:37.948Z,2.87
2023-04-05T23:31:05.219Z,3.00
2023-04-05T23:33:32.377Z,2.90
2023-04-05T23:35:59.546Z,3.07
2023-04-05T23:38:26.718Z,2.97
2023-04-05T23:40:53.815Z,2.97
2023-04-05T23:43:20.978Z,2.57
2023-04-05T23:45:48.067Z,2.63
2023-04-05T23:48:15.203Z,3.30
2023-04-05T23:50:42.328Z,2.90
2023-04-05T23:53:09.498Z,3.27
2023-04-05T23:55:40.409Z,3.00
2023-04-05T23:58:08.276Z,2.80
